aviador You're here:

LFBI Decoded Metar

POITIERS in FRANCE
Report Time2017-12-11 22:30:00
UTC Time2017-12-11 22:59:46
Flight Rules vfr VFR
Wind310° at 08 kt
W.Decomp.*RWY 03: 1.5 kt HW 7.9 kt LCW
W.Rank310° ranks 17
Current wind is above 310° avg. (5.6)
Visibility9999 m
Phenomena:N/A
Clouds:N/A
Expected CloudBase > 800 ft AGL from Temp-Dew spread
CeilingNone
Temp04°C (ISA -10)
Dew Point02°C (87% RH)
AAT-0.5°C
QNH1001 hPa
Density Alt-335 ft
Elevation394 ft
Report Wrong Elevation
Raw Report
LFBI 112230Z AUTO 31008KT CAVOK 04/02 Q1001 NOSIG=

Extra information for LFBI:More info

Metar Taf Metar & Taf Last 4 Metars F.Rules Stats Wind Profile Meteogram Temp Stats Airport Information Weather charts Add Link Nearby VenuesMetar ALERT Operation Metar Decoded Social comments